createdAt,value
2023-04-03T00:02:54.855Z,99249.66
2023-04-03T00:07:56.651Z,99249.84
2023-04-03T00:12:58.463Z,99246.75
2023-04-03T00:18:00.313Z,99266.72
2023-04-03T00:23:03.742Z,99262.72
2023-04-03T00:28:06.104Z,99269.81
2023-04-03T00:33:08.059Z,99270.00
2023-04-03T00:38:09.930Z,99275.34
2023-04-03T00:43:24.856Z,99282.63
2023-04-03T00:48:29.350Z,99276.34
2023-04-03T00:53:46.008Z,99269.34
2023-04-03T00:59:05.302Z,99269.63
2023-04-03T01:04:28.170Z,99269.94
2023-04-03T01:09:31.858Z,99284.91
2023-04-03T01:14:33.933Z,99283.28
2023-04-03T01:19:40.169Z,99286.75
2023-04-03T01:24:42.412Z,99289.22
2023-04-03T01:29:47.459Z,99290.69
2023-04-03T01:34:49.328Z,99292.53
2023-04-03T01:39:51.440Z,99295.50
2023-04-03T01:44:53.531Z,99295.78
2023-04-03T01:49:55.574Z,99299.38
2023-04-03T01:54:57.770Z,99303.44
2023-04-03T01:59:59.932Z,99309.69
2023-04-03T02:05:02.227Z,99320.78
2023-04-03T02:10:04.260Z,99310.88
2023-04-03T02:15:06.649Z,99324.66
2023-04-03T02:20:09.289Z,99330.16
2023-04-03T02:25:11.668Z,99328.16
2023-04-03T02:30:13.898Z,99336.78
2023-04-03T02:35:15.881Z,99333.75
2023-04-03T02:40:18.556Z,99338.34
2023-04-03T02:45:20.916Z,99339.81
2023-04-03T02:50:23.432Z,99347.81
2023-04-03T02:55:25.613Z,99343.50
2023-04-03T03:00:31.016Z,99353.03
2023-04-03T03:05:33.060Z,99360.81
2023-04-03T03:10:35.838Z,99364.09
2023-04-03T03:15:38.159Z,99369.31
2023-04-03T03:20:40.118Z,99367.84
2023-04-03T03:25:42.446Z,99365.38
2023-04-03T03:30:44.301Z,99369.19
2023-04-03T03:35:47.239Z,99367.63
2023-04-03T03:40:51.004Z,99376.16
2023-04-03T03:45:56.174Z,99377.97
2023-04-03T03:50:59.689Z,99383.09
2023-04-03T03:56:06.695Z,99380.81
2023-04-03T04:01:11.039Z,99375.84
2023-04-03T04:06:22.483Z,99381.91
2023-04-03T04:11:26.320Z,99380.34
2023-04-03T04:16:30.713Z,99384.16
2023-04-03T04:21:37.618Z,99389.53
2023-04-03T04:26:39.872Z,99395.84
2023-04-03T04:31:45.524Z,99414.13
2023-04-03T04:36:47.881Z,99412.56
2023-04-03T04:41:50.439Z,99419.50
2023-04-03T04:46:52.565Z,99421.31
2023-04-03T04:51:56.247Z,99423.88
2023-04-03T04:57:04.230Z,99426.38
2023-04-03T05:02:06.801Z,99433.31
2023-04-03T05:07:09.142Z,99435.78
2023-04-03T05:12:12.665Z,99440.25
2023-04-03T05:17:21.367Z,99443.41
2023-04-03T05:22:27.787Z,99445.88
2023-04-03T05:27:34.631Z,99446.53
2023-04-03T05:32:37.551Z,99446.34
2023-04-03T05:37:49.340Z,99448.19
2023-04-03T05:42:53.165Z,99452.47
2023-04-03T05:47:56.898Z,99460.09
2023-04-03T05:53:00.494Z,99460.25
2023-04-03T05:58:05.854Z,99460.41
2023-04-03T06:03:08.801Z,99463.06
2023-04-03T06:08:11.306Z,99459.69
2023-04-03T06:13:13.650Z,99464.72
2023-04-03T06:18:16.336Z,99469.03
2023-04-03T06:23:18.699Z,99465.47
2023-04-03T06:28:20.594Z,99476.63
2023-04-03T06:33:22.496Z,99475.97
2023-04-03T06:38:24.700Z,99476.38
2023-04-03T06:43:27.213Z,99482.34
2023-04-03T06:48:29.316Z,99484.72
2023-04-03T06:53:31.199Z,99487.22
2023-04-03T06:58:33.177Z,99487.69
2023-04-03T07:03:36.548Z,99496.31
2023-04-03T07:08:38.927Z,99494.41
2023-04-03T07:13:41.048Z,99500.75
2023-04-03T07:18:42.890Z,99506.81
2023-04-03T07:23:44.946Z,99507.38
2023-04-03T07:28:49.677Z,99518.47
2023-04-03T07:33:51.635Z,99518.47
2023-04-03T07:38:53.507Z,99530.53
2023-04-03T07:43:57.732Z,99526.47
2023-04-03T07:48:59.830Z,99533.00
2023-04-03T07:54:01.997Z,99534.41
2023-04-03T07:59:04.446Z,99536.97
2023-04-03T08:04:07.989Z,99535.81
2023-04-03T08:09:10.220Z,99551.94
2023-04-03T08:14:18.040Z,99543.44
2023-04-03T08:19:25.949Z,99541.44
2023-04-03T08:24:28.716Z,99541.94
2023-04-03T08:29:32.438Z,99553.34
2023-04-03T08:34:36.105Z,99553.00
2023-04-03T08:39:39.222Z,99537.75
2023-04-03T08:45:17.100Z,99550.53
2023-04-03T08:50:25.291Z,99551.19
2023-04-03T08:55:32.286Z,99549.28
2023-04-03T09:00:52.473Z,99556.53
2023-04-03T09:05:57.347Z,99553.16
2023-04-03T09:11:37.074Z,99565.06
2023-04-03T09:16:48.600Z,99559.59
2023-04-03T09:21:50.734Z,99559.88
2023-04-03T09:26:59.768Z,99565.19
2023-04-03T09:32:03.449Z,99563.13
2023-04-03T09:37:09.862Z,99557.47
2023-04-03T09:42:26.566Z,99550.13
2023-04-03T09:47:31.465Z,99548.47
2023-04-03T09:52:34.574Z,99544.16
2023-04-03T09:57:36.720Z,99546.78
2023-04-03T10:02:43.965Z,99541.00
2023-04-03T10:07:54.504Z,99532.50
2023-04-03T10:13:19.220Z,99537.63
2023-04-03T10:18:32.553Z,99522.38
2023-04-03T10:23:45.487Z,99519.53
2023-04-03T10:29:03.172Z,99514.97
2023-04-03T10:34:14.043Z,99525.56
2023-04-03T10:39:46.785Z,99512.75
2023-04-03T10:45:16.755Z,99516.44
2023-04-03T10:50:54.081Z,99517.09
2023-04-03T10:56:17.156Z,99505.50
2023-04-03T11:01:29.759Z,99497.53
2023-04-03T11:06:44.584Z,99495.19
2023-04-03T11:11:48.924Z,99487.88
2023-04-03T11:17:17.736Z,99490.13
2023-04-03T11:22:40.186Z,99479.28
2023-04-03T11:27:57.766Z,99479.06
2023-04-03T11:33:21.317Z,99475.47
2023-04-03T11:38:46.355Z,99470.44
2023-04-03T11:43:58.648Z,99458.41
2023-04-03T11:49:00.591Z,99462.53
2023-04-03T11:54:44.898Z,99461.91
2023-04-03T11:59:47.576Z,99460.44
2023-04-03T12:05:27.264Z,99469.72
2023-04-03T12:10:32.580Z,99467.88
2023-04-03T12:15:38.059Z,99461.78
2023-04-03T12:20:53.240Z,99460.56
2023-04-03T12:26:01.618Z,99469.41
2023-04-03T12:31:08.149Z,99463.44
2023-04-03T12:36:39.136Z,99462.41
2023-04-03T12:41:56.949Z,99456.13
2023-04-03T12:47:01.575Z,99458.00
2023-04-03T12:52:07.360Z,99456.53
2023-04-03T12:57:21.700Z,99450.34
2023-04-03T13:02:32.356Z,99450.03
2023-04-03T13:07:39.822Z,99463.09
2023-04-03T13:12:51.829Z,99463.84
2023-04-03T13:17:55.298Z,99457.34
2023-04-03T13:23:02.456Z,99460.25
2023-04-03T13:28:13.798Z,99457.28
2023-04-03T13:33:24.007Z,99457.47
2023-04-03T13:38:30.500Z,99449.34
2023-04-03T13:43:36.172Z,99440.91
2023-04-03T13:48:41.923Z,99439.16
2023-04-03T13:53:58.624Z,99432.84
2023-04-03T13:59:17.376Z,99439.88
2023-04-03T14:04:28.086Z,99444.91
2023-04-03T14:09:30.211Z,99441.19
2023-04-03T14:14:34.954Z,99434.78
2023-04-03T14:19:37.682Z,99430.97
2023-04-03T14:24:41.843Z,99430.25
2023-04-03T14:29:48.406Z,99429.97
2023-04-03T14:34:52.283Z,99440.69
2023-04-03T14:39:54.851Z,99440.78
2023-04-03T14:45:01.433Z,99444.56
2023-04-03T14:50:05.614Z,99444.97
2023-04-03T14:55:08.205Z,99449.91
2023-04-03T15:00:18.925Z,99437.88
2023-04-03T15:05:22.075Z,99431.91
2023-04-03T15:10:29.295Z,99437.16
2023-04-03T15:15:31.380Z,99436.97
2023-04-03T15:20:34.875Z,99437.38
2023-04-03T15:25:36.727Z,99436.06
2023-04-03T15:30:41.615Z,99432.03
2023-04-03T15:35:44.265Z,99424.69
2023-04-03T15:40:48.002Z,99430.06
2023-04-03T15:45:51.647Z,99427.25
2023-04-03T15:50:54.075Z,99433.97
2023-04-03T15:55:56.288Z,99431.78
2023-04-03T16:00:58.198Z,99434.66
2023-04-03T16:06:00.122Z,99432.19
2023-04-03T16:11:02.040Z,99428.88
2023-04-03T16:16:06.196Z,99434.03
2023-04-03T16:21:10.490Z,99429.06
2023-04-03T16:26:13.057Z,99435.25
2023-04-03T16:31:15.246Z,99435.00
2023-04-03T16:36:17.329Z,99441.56
2023-04-03T16:41:19.294Z,99442.66
2023-04-03T16:46:22.323Z,99445.63
2023-04-03T16:51:24.591Z,99445.38
2023-04-03T16:56:29.691Z,99444.19
2023-04-03T17:01:31.758Z,99453.09
2023-04-03T17:06:33.917Z,99446.50
2023-04-03T17:16:43.654Z,99447.25
2023-04-03T17:21:46.509Z,99452.28
2023-04-03T17:26:48.524Z,99453.84
2023-04-03T17:31:50.826Z,99461.75
2023-04-03T17:36:52.881Z,99461.38
2023-04-03T17:41:55.263Z,99468.44
2023-04-03T17:46:57.188Z,99474.88
2023-04-03T17:51:59.485Z,99469.84
2023-04-03T17:57:03.721Z,99469.00
2023-04-03T18:02:06.062Z,99477.53
2023-04-03T18:07:10.214Z,99473.13
2023-04-03T18:12:12.425Z,99466.25
2023-04-03T18:17:16.135Z,99472.31
2023-04-03T18:22:21.939Z,99466.44
2023-04-03T18:27:27.731Z,99463.13
2023-04-03T18:32:29.632Z,99474.25
2023-04-03T18:37:31.930Z,99454.41
2023-04-03T18:42:37.135Z,99462.88
2023-04-03T18:47:39.540Z,99469.47
2023-04-03T18:52:42.475Z,99466.81
2023-04-03T18:57:44.846Z,99466.91
2023-04-03T19:02:46.898Z,99459.28
2023-04-03T19:07:49.848Z,99459.38
2023-04-03T19:12:52.343Z,99449.28
2023-04-03T19:17:54.955Z,99458.81
2023-04-03T19:22:57.985Z,99459.84
2023-04-03T19:28:02.732Z,99455.63
2023-04-03T19:33:04.681Z,99462.59
2023-04-03T19:38:06.541Z,99457.44
2023-04-03T19:43:09.737Z,99449.75
2023-04-03T19:48:12.172Z,99451.50
2023-04-03T19:53:18.869Z,99450.66
2023-04-03T19:58:20.926Z,99449.75
2023-04-03T20:03:23.690Z,99452.31
2023-04-03T20:08:28.446Z,99445.53
2023-04-03T20:13:30.575Z,99445.25
2023-04-03T20:18:33.296Z,99447.72
2023-04-03T20:23:37.335Z,99444.25
2023-04-03T20:28:39.142Z,99448.56
2023-04-03T20:33:41.070Z,99445.06
2023-04-03T20:38:43.166Z,99444.16
2023-04-03T20:43:46.417Z,99443.31
2023-04-03T20:48:48.399Z,99443.50
2023-04-03T20:53:50.342Z,99440.03
2023-04-03T20:58:52.620Z,99434.88
2023-04-03T21:04:04.093Z,99428.09
2023-04-03T21:09:44.945Z,99438.38
2023-04-03T21:15:24.157Z,99433.22
2023-04-03T21:20:26.167Z,99424.78
2023-04-03T21:25:28.542Z,99427.47
2023-04-03T21:30:31.598Z,99429.09
2023-04-03T21:35:33.710Z,99433.31
2023-04-03T21:40:35.712Z,99429.84
2023-04-03T21:45:39.353Z,99424.78
2023-04-03T21:50:41.418Z,99431.69
2023-04-03T21:55:54.577Z,99422.97
2023-04-03T22:00:57.236Z,99417.81
2023-04-03T22:05:59.352Z,99415.34
2023-04-03T22:11:03.595Z,99419.66
2023-04-03T22:16:06.152Z,99407.72
2023-04-03T22:21:08.443Z,99414.63
2023-04-03T22:26:12.634Z,99410.38
2023-04-03T22:31:17.321Z,99410.59
2023-04-03T22:36:19.652Z,99406.25
2023-04-03T22:41:22.287Z,99396.00
2023-04-03T22:46:26.124Z,99407.91
2023-04-03T22:51:28.639Z,99405.44
2023-04-03T22:56:31.906Z,99399.66
2023-04-03T23:01:34.474Z,99396.47
2023-04-03T23:06:38.161Z,99393.81
2023-04-03T23:11:40.005Z,99397.28
2023-04-03T23:16:42.448Z,99404.06
2023-04-03T23:21:45.969Z,99397.19
2023-04-03T23:26:47.822Z,99399.75
2023-04-03T23:31:49.936Z,99400.69
2023-04-03T23:36:51.963Z,99407.56
2023-04-03T23:41:54.881Z,99395.44
2023-04-03T23:46:58.170Z,99389.41
2023-04-03T23:52:00.896Z,99390.31
2023-04-03T23:57:02.766Z,99389.41
